Harrods Creek, Kentucky
Current Conditions -  °F | °C
As of 1:53 PM on Sunday 23 Nov 2014 (Local Time) from KLOU Reporting Station
Overcast Overcast  
Wind Chill: 55°   Ceiling: 5000
Heat Index: 55°   Visibility: 10mi
Dew Point: 50°   Wind: 8mph
Humidity: 83%   Direction: 130°SE
Pressure: 29.68"   Gusts: NA
Location:  38.33°N, 85.63°W
Report Text: KLOU 231853Z 13007KT 10SM FEW030 OVC050 13/10 A2968 RMK AO2 RAE49 SLP052 P0005 T01280100
Loading
Personal Weather Stations






























Interactive Weather Map New forecast layout! Learn more

10-Day Weather Forecast

Advertisements
Track Severe Weather on mobile